sensor_id;sensor_type;location;lat;lon;timestamp;pressure;altitude;pressure_sealevel;temperature;humidity
65157;BME280;52745;49.794;18.258;2023-02-18T00:00:27;-16185.47;;;9.29;96.75
65157;BME280;52745;49.794;18.258;2023-02-18T00:03:14;-16186.28;;;9.32;97.10
65157;BME280;52745;49.794;18.258;2023-02-18T00:05:41;-16187.09;;;9.36;97.03
65157;BME280;52745;49.794;18.258;2023-02-18T00:08:07;-16186.84;;;9.35;96.80
65157;BME280;52745;49.794;18.258;2023-02-18T00:10:34;-16187.38;;;9.37;96.86
65157;BME280;52745;49.794;18.258;2023-02-18T00:13:01;-16187.25;;;9.36;96.66
65157;BME280;52745;49.794;18.258;2023-02-18T00:15:27;-16186.44;;;9.33;97.00
65157;BME280;52745;49.794;18.258;2023-02-18T00:17:54;-16186.56;;;9.33;96.46
65157;BME280;52745;49.794;18.258;2023-02-18T00:20:21;-16186.00;;;9.31;96.46
65157;BME280;52745;49.794;18.258;2023-02-18T00:22:48;-16185.47;;;9.29;96.43
65157;BME280;52745;49.794;18.258;2023-02-18T00:25:14;-16184.66;;;9.26;96.40
65157;BME280;52745;49.794;18.258;2023-02-18T00:27:41;-16183.84;;;9.23;96.85
65157;BME280;52745;49.794;18.258;2023-02-18T00:30:08;-16184.09;;;9.24;96.83
65157;BME280;52745;49.794;18.258;2023-02-18T00:32:35;-16182.75;;;9.19;96.97
65157;BME280;52745;49.794;18.258;2023-02-18T00:35:03;-16181.91;;;9.16;97.50
65157;BME280;52745;49.794;18.258;2023-02-18T00:37:30;-16182.47;;;9.18;97.44
65157;BME280;52745;49.794;18.258;2023-02-18T00:39:57;-16183.28;;;9.21;97.44
65157;BME280;52745;49.794;18.258;2023-02-18T00:42:24;-16184.91;;;9.27;96.99
65157;BME280;52745;49.794;18.258;2023-02-18T00:44:51;-16186.16;;;9.32;96.19
65157;BME280;52745;49.794;18.258;2023-02-18T00:47:17;-16186.16;;;9.32;96.00
65157;BME280;52745;49.794;18.258;2023-02-18T00:49:44;-16185.75;;;9.30;95.77
65157;BME280;52745;49.794;18.258;2023-02-18T00:52:11;-16185.47;;;9.29;95.04
65157;BME280;52745;49.794;18.258;2023-02-18T00:54:40;-16184.09;;;9.24;94.57
65157;BME280;52745;49.794;18.258;2023-02-18T00:57:07;-16183.44;;;9.22;94.48
65157;BME280;52745;49.794;18.258;2023-02-18T00:59:34;-16182.47;;;9.18;94.33
65157;BME280;52745;49.794;18.258;2023-02-18T01:02:00;-16181.25;;;9.14;94.09
65157;BME280;52745;49.794;18.258;2023-02-18T01:04:27;-16180.56;;;9.11;93.48
65157;BME280;52745;49.794;18.258;2023-02-18T01:06:54;-16181.78;;;9.16;93.12
65157;BME280;52745;49.794;18.258;2023-02-18T01:09:21;-16182.34;;;9.18;92.86
65157;BME280;52745;49.794;18.258;2023-02-18T01:11:50;-16180.69;;;9.11;92.99
65157;BME280;52745;49.794;18.258;2023-02-18T01:14:17;-16180.28;;;9.10;93.15
65157;BME280;52745;49.794;18.258;2023-02-18T01:16:44;-16179.47;;;9.07;92.86
65157;BME280;52745;49.794;18.258;2023-02-18T01:19:11;-16179.47;;;9.07;92.81
65157;BME280;52745;49.794;18.258;2023-02-18T01:21:38;-16178.50;;;9.03;92.76
65157;BME280;52745;49.794;18.258;2023-02-18T01:24:05;-16179.88;;;9.08;92.30
65157;BME280;52745;49.794;18.258;2023-02-18T01:26:32;-16179.06;;;9.05;92.03
65157;BME280;52745;49.794;18.258;2023-02-18T01:28:59;-16177.81;;;9.01;92.06
65157;BME280;52745;49.794;18.258;2023-02-18T01:31:25;-16177.28;;;8.99;91.99
65157;BME280;52745;49.794;18.258;2023-02-18T01:33:53;-16177.81;;;9.01;91.59
65157;BME280;52745;49.794;18.258;2023-02-18T01:36:20;-16177.41;;;8.99;91.46
65157;BME280;52745;49.794;18.258;2023-02-18T01:38:47;-16178.09;;;9.02;91.06
65157;BME280;52745;49.794;18.258;2023-02-18T01:41:13;-16180.16;;;9.09;89.98
65157;BME280;52745;49.794;18.258;2023-02-18T01:43:40;-16180.00;;;9.09;89.85
65157;BME280;52745;49.794;18.258;2023-02-18T01:46:18;-16180.00;;;9.09;89.54
65157;BME280;52745;49.794;18.258;2023-02-18T01:48:49;-16180.97;;;9.13;89.49
65157;BME280;52745;49.794;18.258;2023-02-18T01:51:20;-16180.97;;;9.13;89.04
65157;BME280;52745;49.794;18.258;2023-02-18T01:59:16;-16182.59;;;9.19;88.80
65157;BME280;52745;49.794;18.258;2023-02-18T02:01:45;-16182.19;;;9.17;88.78
65157;BME280;52745;49.794;18.258;2023-02-18T02:04:12;-16183.28;;;9.21;88.76
65157;BME280;52745;49.794;18.258;2023-02-18T02:06:40;-16183.84;;;9.23;88.73
65157;BME280;52745;49.794;18.258;2023-02-18T02:09:10;-16183.16;;;9.21;89.04
65157;BME280;52745;49.794;18.258;2023-02-18T02:20:23;-16183.28;;;9.21;89.34
65157;BME280;52745;49.794;18.258;2023-02-18T02:28:50;-16176.88;;;8.97;92.23
65157;BME280;52745;49.794;18.258;2023-02-18T02:45:37;-16174.56;;;8.88;91.51
65157;BME280;52745;49.794;18.258;2023-02-18T02:48:41;-16172.78;;;8.82;91.82
65157;BME280;52745;49.794;18.258;2023-02-18T02:51:36;-16171.97;;;8.79;91.39
65157;BME280;52745;49.794;18.258;2023-02-18T02:56:41;-16172.50;;;8.81;90.76
65157;BME280;52745;49.794;18.258;2023-02-18T02:59:14;-16172.50;;;8.81;90.39
65157;BME280;52745;49.794;18.258;2023-02-18T03:02:07;-16173.47;;;8.84;89.83
65157;BME280;52745;49.794;18.258;2023-02-18T03:07:28;-16174.56;;;8.88;89.35
65157;BME280;52745;49.794;18.258;2023-02-18T03:15:26;-16176.06;;;8.94;88.56
65157;BME280;52745;49.794;18.258;2023-02-18T03:18:00;-16176.19;;;8.95;88.41
65157;BME280;52745;49.794;18.258;2023-02-18T03:20:40;-16174.69;;;8.89;89.11
65157;BME280;52745;49.794;18.258;2023-02-18T03:23:15;-16174.41;;;8.88;88.82
65157;BME280;52745;49.794;18.258;2023-02-18T03:25:44;-16173.72;;;8.85;88.81
65157;BME280;52745;49.794;18.258;2023-02-18T03:28:16;-16173.72;;;8.85;88.64
65157;BME280;52745;49.794;18.258;2023-02-18T03:33:24;-16174.28;;;8.87;88.59
65157;BME280;52745;49.794;18.258;2023-02-18T03:35:55;-16174.56;;;8.88;88.57
65157;BME280;52745;49.794;18.258;2023-02-18T03:38:30;-16174.28;;;8.87;88.00
65157;BME280;52745;49.794;18.258;2023-02-18T03:40:59;-16173.19;;;8.83;87.93
65157;BME280;52745;49.794;18.258;2023-02-18T03:43:27;-16171.56;;;8.77;88.64
65157;BME280;52745;49.794;18.258;2023-02-18T03:45:55;-16170.72;;;8.74;88.83
65157;BME280;52745;49.794;18.258;2023-02-18T03:48:22;-16170.59;;;8.74;88.73
65157;BME280;52745;49.794;18.258;2023-02-18T03:50:52;-16167.88;;;8.63;88.79
65157;BME280;52745;49.794;18.258;2023-02-18T03:53:18;-16168.28;;;8.65;88.82
65157;BME280;52745;49.794;18.258;2023-02-18T03:55:45;-16169.09;;;8.68;87.83
65157;BME280;52745;49.794;18.258;2023-02-18T03:58:12;-16169.91;;;8.71;87.44
65157;BME280;52745;49.794;18.258;2023-02-18T04:00:39;-16170.19;;;8.72;85.68
65157;BME280;52745;49.794;18.258;2023-02-18T04:03:05;-16169.78;;;8.70;84.55
65157;BME280;52745;49.794;18.258;2023-02-18T04:05:32;-16170.19;;;8.72;83.98
65157;BME280;52745;49.794;18.258;2023-02-18T04:07:59;-16171.56;;;8.77;82.25
65157;BME280;52745;49.794;18.258;2023-02-18T04:10:26;-16173.19;;;8.83;81.57
65157;BME280;52745;49.794;18.258;2023-02-18T04:12:52;-16174.56;;;8.88;81.04
65157;BME280;52745;49.794;18.258;2023-02-18T04:15:19;-16176.31;;;8.95;80.23
65157;BME280;52745;49.794;18.258;2023-02-18T04:17:46;-16177.41;;;8.99;79.92
65157;BME280;52745;49.794;18.258;2023-02-18T04:20:13;-16178.91;;;9.05;79.43
65157;BME280;52745;49.794;18.258;2023-02-18T04:22:40;-16178.78;;;9.04;79.04
65157;BME280;52745;49.794;18.258;2023-02-18T04:25:07;-16177.97;;;9.01;79.00
65157;BME280;52745;49.794;18.258;2023-02-18T04:27:34;-16177.97;;;9.01;79.33
65157;BME280;52745;49.794;18.258;2023-02-18T04:30:01;-16180.00;;;9.09;79.03
65157;BME280;52745;49.794;18.258;2023-02-18T04:32:28;-16178.50;;;9.03;78.67
65157;BME280;52745;49.794;18.258;2023-02-18T04:34:55;-16181.09;;;9.13;78.02
65157;BME280;52745;49.794;18.258;2023-02-18T04:37:21;-16180.28;;;9.10;77.87
65157;BME280;52745;49.794;18.258;2023-02-18T04:39:48;-16181.09;;;9.13;77.44
65157;BME280;52745;49.794;18.258;2023-02-18T04:42:15;-16181.25;;;9.14;77.62
65157;BME280;52745;49.794;18.258;2023-02-18T04:44:42;-16180.16;;;9.09;77.53
65157;BME280;52745;49.794;18.258;2023-02-18T04:47:09;-16181.09;;;9.13;77.64
65157;BME280;52745;49.794;18.258;2023-02-18T04:49:36;-16182.34;;;9.18;76.95
65157;BME280;52745;49.794;18.258;2023-02-18T04:52:02;-16183.16;;;9.21;76.55
65157;BME280;52745;49.794;18.258;2023-02-18T04:54:30;-16184.78;;;9.27;76.32
65157;BME280;52745;49.794;18.258;2023-02-18T04:56:56;-16184.66;;;9.26;76.01
65157;BME280;52745;49.794;18.258;2023-02-18T04:59:23;-16184.66;;;9.26;76.24
65157;BME280;52745;49.794;18.258;2023-02-18T05:01:50;-16184.50;;;9.26;75.70
65157;BME280;52745;49.794;18.258;2023-02-18T05:04:17;-16185.59;;;9.30;75.87
65157;BME280;52745;49.794;18.258;2023-02-18T05:06:44;-16184.50;;;9.26;75.49
65157;BME280;52745;49.794;18.258;2023-02-18T05:09:11;-16183.97;;;9.24;75.82
65157;BME280;52745;49.794;18.258;2023-02-18T05:11:38;-16183.69;;;9.23;75.54
65157;BME280;52745;49.794;18.258;2023-02-18T05:14:05;-16184.66;;;9.26;75.39
65157;BME280;52745;49.794;18.258;2023-02-18T05:16:32;-16183.69;;;9.23;75.27
65157;BME280;52745;49.794;18.258;2023-02-18T05:18:59;-16183.28;;;9.21;75.28
65157;BME280;52745;49.794;18.258;2023-02-18T05:21:25;-16184.50;;;9.26;75.61
65157;BME280;52745;49.794;18.258;2023-02-18T05:23:52;-16183.16;;;9.21;76.07
65157;BME280;52745;49.794;18.258;2023-02-18T05:26:19;-16182.88;;;9.20;75.50
65157;BME280;52745;49.794;18.258;2023-02-18T05:28:46;-16182.88;;;9.20;75.77
65157;BME280;52745;49.794;18.258;2023-02-18T05:31:13;-16181.66;;;9.15;76.15
65157;BME280;52745;49.794;18.258;2023-02-18T05:33:40;-16182.47;;;9.18;76.04
65157;BME280;52745;49.794;18.258;2023-02-18T05:36:06;-16183.16;;;9.21;75.50
65157;BME280;52745;49.794;18.258;2023-02-18T05:38:33;-16184.50;;;9.26;75.12
65157;BME280;52745;49.794;18.258;2023-02-18T05:41:00;-16186.00;;;9.31;75.30
65157;BME280;52745;49.794;18.258;2023-02-18T05:43:27;-16186.16;;;9.32;75.62
65157;BME280;52745;49.794;18.258;2023-02-18T05:45:53;-16184.91;;;9.27;75.89
65157;BME280;52745;49.794;18.258;2023-02-18T05:48:20;-16184.38;;;9.25;76.46
65157;BME280;52745;49.794;18.258;2023-02-18T05:50:47;-16183.00;;;9.20;76.68
65157;BME280;52745;49.794;18.258;2023-02-18T05:53:14;-16183.44;;;9.22;76.84
65157;BME280;52745;49.794;18.258;2023-02-18T05:55:41;-16183.00;;;9.20;77.33
65157;BME280;52745;49.794;18.258;2023-02-18T05:58:07;-16181.78;;;9.16;77.85
65157;BME280;52745;49.794;18.258;2023-02-18T06:00:34;-16181.50;;;9.15;78.20
65157;BME280;52745;49.794;18.258;2023-02-18T06:03:01;-16180.56;;;9.11;78.45
65157;BME280;52745;49.794;18.258;2023-02-18T06:05:28;-16180.16;;;9.09;78.84
65157;BME280;52745;49.794;18.258;2023-02-18T06:07:55;-16180.00;;;9.09;79.11
65157;BME280;52745;49.794;18.258;2023-02-18T06:10:21;-16178.66;;;9.04;80.13
65157;BME280;52745;49.794;18.258;2023-02-18T06:12:48;-16179.47;;;9.07;79.90
65157;BME280;52745;49.794;18.258;2023-02-18T06:15:15;-16179.75;;;9.08;79.83
65157;BME280;52745;49.794;18.258;2023-02-18T06:17:41;-16180.41;;;9.10;80.00
65157;BME280;52745;49.794;18.258;2023-02-18T06:20:08;-16180.00;;;9.09;80.61
65157;BME280;52745;49.794;18.258;2023-02-18T06:22:36;-16178.09;;;9.02;80.97
65157;BME280;52745;49.794;18.258;2023-02-18T06:25:02;-16178.09;;;9.02;81.41
65157;BME280;52745;49.794;18.258;2023-02-18T06:27:29;-16177.81;;;9.01;81.66
65157;BME280;52745;49.794;18.258;2023-02-18T06:29:56;-16176.88;;;8.97;81.98
65157;BME280;52745;49.794;18.258;2023-02-18T06:32:22;-16176.47;;;8.96;82.46
65157;BME280;52745;49.794;18.258;2023-02-18T06:34:49;-16174.56;;;8.88;82.79
65157;BME280;52745;49.794;18.258;2023-02-18T06:37:16;-16176.06;;;8.94;82.75
65157;BME280;52745;49.794;18.258;2023-02-18T06:39:43;-16174.56;;;8.88;83.11
65157;BME280;52745;49.794;18.258;2023-02-18T06:42:09;-16174.56;;;8.88;83.30
65157;BME280;52745;49.794;18.258;2023-02-18T06:44:36;-16174.41;;;8.88;82.97
65157;BME280;52745;49.794;18.258;2023-02-18T06:47:03;-16173.19;;;8.83;82.91
65157;BME280;52745;49.794;18.258;2023-02-18T06:49:30;-16172.91;;;8.82;82.98
65157;BME280;52745;49.794;18.258;2023-02-18T06:51:57;-16173.47;;;8.84;83.32
65157;BME280;52745;49.794;18.258;2023-02-18T06:54:23;-16172.91;;;8.82;83.27
65157;BME280;52745;49.794;18.258;2023-02-18T06:56:50;-16170.72;;;8.74;83.03
65157;BME280;52745;49.794;18.258;2023-02-18T06:59:17;-16171.41;;;8.77;83.54
65157;BME280;52745;49.794;18.258;2023-02-18T07:01:52;-16171.81;;;8.78;83.08
65157;BME280;52745;49.794;18.258;2023-02-18T07:04:18;-16170.31;;;8.73;83.11
65157;BME280;52745;49.794;18.258;2023-02-18T07:06:45;-16169.63;;;8.70;83.01
65157;BME280;52745;49.794;18.258;2023-02-18T07:09:12;-16169.78;;;8.70;82.94
65157;BME280;52745;49.794;18.258;2023-02-18T07:11:39;-16169.09;;;8.68;82.81
65157;BME280;52745;49.794;18.258;2023-02-18T07:14:05;-16169.09;;;8.68;82.72
65157;BME280;52745;49.794;18.258;2023-02-18T07:16:32;-16171.41;;;8.77;82.44
65157;BME280;52745;49.794;18.258;2023-02-18T07:18:59;-16171.97;;;8.79;82.57
65157;BME280;52745;49.794;18.258;2023-02-18T07:21:26;-16172.38;;;8.80;81.64
65157;BME280;52745;49.794;18.258;2023-02-18T07:23:52;-16171.13;;;8.76;81.18
65157;BME280;52745;49.794;18.258;2023-02-18T07:26:19;-16172.91;;;8.82;81.42
65157;BME280;52745;49.794;18.258;2023-02-18T07:28:46;-16174.56;;;8.88;81.09
65157;BME280;52745;49.794;18.258;2023-02-18T07:31:13;-16174.69;;;8.89;80.49
65157;BME280;52745;49.794;18.258;2023-02-18T07:33:39;-16174.81;;;8.89;80.45
65157;BME280;52745;49.794;18.258;2023-02-18T07:36:07;-16175.38;;;8.91;79.34
65157;BME280;52745;49.794;18.258;2023-02-18T07:38:33;-16174.97;;;8.90;78.94
65157;BME280;52745;49.794;18.258;2023-02-18T07:41:00;-16174.16;;;8.87;78.59
65157;BME280;52745;49.794;18.258;2023-02-18T07:43:27;-16175.38;;;8.91;78.28
65157;BME280;52745;49.794;18.258;2023-02-18T07:45:54;-16175.50;;;8.92;77.94
65157;BME280;52745;49.794;18.258;2023-02-18T07:48:21;-16174.81;;;8.89;78.21
65157;BME280;52745;49.794;18.258;2023-02-18T07:50:48;-16177.28;;;8.99;78.85
65157;BME280;52745;49.794;18.258;2023-02-18T07:53:15;-16180.00;;;9.09;82.72
65157;BME280;52745;49.794;18.258;2023-02-18T07:55:42;-16183.28;;;9.21;81.40
65157;BME280;52745;49.794;18.258;2023-02-18T07:58:20;-16182.59;;;9.19;78.97
65157;BME280;52745;49.794;18.258;2023-02-18T08:00:48;-16181.66;;;9.15;77.29
65157;BME280;52745;49.794;18.258;2023-02-18T08:03:18;-16180.81;;;9.12;76.90
65157;BME280;52745;49.794;18.258;2023-02-18T08:05:49;-16178.78;;;9.04;76.90
65157;BME280;52745;49.794;18.258;2023-02-18T08:08:21;-16180.00;;;9.09;76.91
65157;BME280;52745;49.794;18.258;2023-02-18T08:10:49;-16178.78;;;9.04;77.30
65157;BME280;52745;49.794;18.258;2023-02-18T08:13:16;-16180.00;;;9.09;75.96
65157;BME280;52745;49.794;18.258;2023-02-18T08:15:43;-16177.69;;;9.00;75.70
65157;BME280;52745;49.794;18.258;2023-02-18T08:18:18;-16178.09;;;9.02;76.71
65157;BME280;52745;49.794;18.258;2023-02-18T08:20:46;-16180.69;;;9.11;75.88
65157;BME280;52745;49.794;18.258;2023-02-18T08:23:14;-16184.78;;;9.27;76.92
65157;BME280;52745;49.794;18.258;2023-02-18T08:25:46;-16181.50;;;9.15;74.26
65157;BME280;52745;49.794;18.258;2023-02-18T08:28:14;-16179.75;;;9.08;74.49
65157;BME280;52745;49.794;18.258;2023-02-18T08:30:45;-16180.00;;;9.09;73.62
65157;BME280;52745;49.794;18.258;2023-02-18T08:33:12;-16177.81;;;9.01;73.46
65157;BME280;52745;49.794;18.258;2023-02-18T08:35:39;-16179.59;;;9.07;73.25
65157;BME280;52745;49.794;18.258;2023-02-18T08:38:06;-16176.47;;;8.96;73.25
65157;BME280;52745;49.794;18.258;2023-02-18T08:40:33;-16175.91;;;8.94;73.14
65157;BME280;52745;49.794;18.258;2023-02-18T08:42:59;-16176.75;;;8.97;73.23
65157;BME280;52745;49.794;18.258;2023-02-18T08:45:26;-16174.81;;;8.89;73.52
65157;BME280;52745;49.794;18.258;2023-02-18T08:47:53;-16174.56;;;8.88;73.77
65157;BME280;52745;49.794;18.258;2023-02-18T08:50:20;-16174.56;;;8.88;74.12
65157;BME280;52745;49.794;18.258;2023-02-18T08:52:51;-16173.47;;;8.84;74.35
65157;BME280;52745;49.794;18.258;2023-02-18T08:55:18;-16172.78;;;8.82;74.56
65157;BME280;52745;49.794;18.258;2023-02-18T08:57:49;-16172.66;;;8.81;75.09
65157;BME280;52745;49.794;18.258;2023-02-18T09:00:16;-16171.28;;;8.76;75.15
65157;BME280;52745;49.794;18.258;2023-02-18T09:02:43;-16171.56;;;8.77;75.42
65157;BME280;52745;49.794;18.258;2023-02-18T09:05:11;-16170.06;;;8.72;75.17
65157;BME280;52745;49.794;18.258;2023-02-18T09:07:37;-16171.81;;;8.78;75.23
65157;BME280;52745;49.794;18.258;2023-02-18T09:10:05;-16170.47;;;8.73;75.12
65157;BME280;52745;49.794;18.258;2023-02-18T09:12:32;-16171.28;;;8.76;75.42
65157;BME280;52745;49.794;18.258;2023-02-18T09:14:59;-16171.00;;;8.75;75.13
65157;BME280;52745;49.794;18.258;2023-02-18T09:17:27;-16171.81;;;8.78;75.72
65157;BME280;52745;49.794;18.258;2023-02-18T09:19:53;-16170.47;;;8.73;76.60
65157;BME280;52745;49.794;18.258;2023-02-18T09:22:20;-16169.38;;;8.69;76.17
65157;BME280;52745;49.794;18.258;2023-02-18T09:24:47;-16169.09;;;8.68;76.48
65157;BME280;52745;49.794;18.258;2023-02-18T09:27:14;-16168.00;;;8.64;76.95
65157;BME280;52745;49.794;18.258;2023-02-18T09:29:41;-16166.91;;;8.60;76.92
65157;BME280;52745;49.794;18.258;2023-02-18T09:32:08;-16169.09;;;8.68;76.69
65157;BME280;52745;49.794;18.258;2023-02-18T09:34:35;-16168.41;;;8.65;76.72
65157;BME280;52745;49.794;18.258;2023-02-18T09:37:03;-16166.63;;;8.59;77.00
65157;BME280;52745;49.794;18.258;2023-02-18T09:39:30;-16167.59;;;8.62;77.04
65157;BME280;52745;49.794;18.258;2023-02-18T09:41:58;-16166.91;;;8.60;77.47
65157;BME280;52745;49.794;18.258;2023-02-18T09:44:50;-16166.09;;;8.57;77.63
65157;BME280;52745;49.794;18.258;2023-02-18T09:47:58;-16166.91;;;8.60;77.85
65157;BME280;52745;49.794;18.258;2023-02-18T09:50:21;-16166.78;;;8.59;78.21
65157;BME280;52745;49.794;18.258;2023-02-18T09:52:50;-16168.81;;;8.67;78.00
65157;BME280;52745;49.794;18.258;2023-02-18T09:55:30;-16169.09;;;8.68;78.30
65157;BME280;52745;49.794;18.258;2023-02-18T09:58:19;-16170.72;;;8.74;78.29
65157;BME280;52745;49.794;18.258;2023-02-18T10:01:02;-16169.50;;;8.69;79.10
65157;BME280;52745;49.794;18.258;2023-02-18T10:03:29;-16170.59;;;8.74;79.44
65157;BME280;52745;49.794;18.258;2023-02-18T10:06:04;-16168.81;;;8.67;80.98
65157;BME280;52745;49.794;18.258;2023-02-18T10:08:41;-16169.78;;;8.70;80.55
65157;BME280;52745;49.794;18.258;2023-02-18T10:11:22;-16172.78;;;8.82;80.36
65157;BME280;52745;49.794;18.258;2023-02-18T10:13:51;-16172.66;;;8.81;81.22
65157;BME280;52745;49.794;18.258;2023-02-18T10:16:20;-16173.31;;;8.84;81.77
65157;BME280;52745;49.794;18.258;2023-02-18T10:18:53;-16174.00;;;8.86;82.15
65157;BME280;52745;49.794;18.258;2023-02-18T10:21:28;-16173.31;;;8.84;82.82
65157;BME280;52745;49.794;18.258;2023-02-18T10:24:32;-16174.28;;;8.87;83.58
65157;BME280;52745;49.794;18.258;2023-02-18T10:27:00;-16175.09;;;8.90;84.24
65157;BME280;52745;49.794;18.258;2023-02-18T10:29:28;-16178.25;;;9.02;84.23
65157;BME280;52745;49.794;18.258;2023-02-18T10:32:05;-16177.16;;;8.98;84.99
65157;BME280;52745;49.794;18.258;2023-02-18T10:37:41;-16174.00;;;8.86;86.16
65157;BME280;52745;49.794;18.258;2023-02-18T10:40:12;-16171.81;;;8.78;87.08
65157;BME280;52745;49.794;18.258;2023-02-18T10:42:45;-16168.56;;;8.66;88.11
65157;BME280;52745;49.794;18.258;2023-02-18T10:45:31;-16165.28;;;8.54;90.17
65157;BME280;52745;49.794;18.258;2023-02-18T10:50:37;-16163.09;;;8.45;91.88
65157;BME280;52745;49.794;18.258;2023-02-18T10:53:15;-16165.00;;;8.53;92.19
65157;BME280;52745;49.794;18.258;2023-02-18T10:55:46;-16161.72;;;8.40;93.00
65157;BME280;52745;49.794;18.258;2023-02-18T10:58:42;-16160.06;;;8.34;93.23
65157;BME280;52745;49.794;18.258;2023-02-18T11:01:16;-16156.81;;;8.22;94.25
65157;BME280;52745;49.794;18.258;2023-02-18T11:03:51;-16159.00;;;8.30;94.94
65157;BME280;52745;49.794;18.258;2023-02-18T11:06:32;-16159.00;;;8.30;94.25
65157;BME280;52745;49.794;18.258;2023-02-18T11:09:05;-16155.72;;;8.18;95.17
65157;BME280;52745;49.794;18.258;2023-02-18T11:11:41;-16154.88;;;8.15;96.10
65157;BME280;52745;49.794;18.258;2023-02-18T11:14:12;-16152.03;;;8.04;96.58
65157;BME280;52745;49.794;18.258;2023-02-18T11:16:43;-16150.25;;;7.97;98.02
65157;BME280;52745;49.794;18.258;2023-02-18T11:19:30;-16149.97;;;7.96;98.24
65157;BME280;52745;49.794;18.258;2023-02-18T11:22:18;-16149.16;;;7.93;99.42
65157;BME280;52745;49.794;18.258;2023-02-18T11:24:47;-16148.34;;;7.90;99.90
65157;BME280;52745;49.794;18.258;2023-02-18T11:29:53;-16150.25;;;7.97;100.00
65157;BME280;52745;49.794;18.258;2023-02-18T11:32:21;-16150.38;;;7.98;100.00
65157;BME280;52745;49.794;18.258;2023-02-18T11:34:50;-16151.47;;;8.02;100.00
65157;BME280;52745;49.794;18.258;2023-02-18T11:37:18;-16149.84;;;7.96;100.00
65157;BME280;52745;49.794;18.258;2023-02-18T11:39:49;-16149.03;;;7.93;100.00
65157;BME280;52745;49.794;18.258;2023-02-18T11:42:19;-16150.81;;;7.99;100.00
65157;BME280;52745;49.794;18.258;2023-02-18T11:44:55;-16149.16;;;7.93;100.00
65157;BME280;52745;49.794;18.258;2023-02-18T11:47:24;-16150.94;;;8.00;100.00
65157;BME280;52745;49.794;18.258;2023-02-18T11:52:42;-16149.72;;;7.95;100.00
65157;BME280;52745;49.794;18.258;2023-02-18T12:00:43;-16147.94;;;7.88;100.00
65157;BME280;52745;49.794;18.258;2023-02-18T12:06:12;-16145.34;;;7.79;100.00
65157;BME280;52745;49.794;18.258;2023-02-18T12:11:49;-16144.25;;;7.75;100.00
65157;BME280;52745;49.794;18.258;2023-02-18T12:14:19;-16143.44;;;7.72;100.00
65157;BME280;52745;49.794;18.258;2023-02-18T12:23:01;-16145.34;;;7.79;100.00
65157;BME280;52745;49.794;18.258;2023-02-18T12:34:00;-16146.69;;;7.84;100.00
65157;BME280;52745;49.794;18.258;2023-02-18T12:37:49;-16147.66;;;7.87;100.00
65157;BME280;52745;49.794;18.258;2023-02-18T12:42:31;-16148.06;;;7.89;100.00
65157;BME280;52745;49.794;18.258;2023-02-18T13:07:06;-16151.75;;;8.03;100.00
65157;BME280;52745;49.794;18.258;2023-02-18T13:12:24;-16154.75;;;8.14;100.00
65157;BME280;52745;49.794;18.258;2023-02-18T13:15:00;-16155.03;;;8.15;100.00
65157;BME280;52745;49.794;18.258;2023-02-18T13:17:33;-16155.56;;;8.17;100.00
65157;BME280;52745;49.794;18.258;2023-02-18T13:20:12;-16156.81;;;8.22;100.00
65157;BME280;52745;49.794;18.258;2023-02-18T13:22:40;-16157.34;;;8.24;100.00
65157;BME280;52745;49.794;18.258;2023-02-18T13:25:11;-16157.91;;;8.26;100.00
65157;BME280;52745;49.794;18.258;2023-02-18T13:30:38;-16160.63;;;8.36;100.00
65157;BME280;52745;49.794;18.258;2023-02-18T13:33:28;-16160.63;;;8.36;100.00
65157;BME280;52745;49.794;18.258;2023-02-18T13:36:08;-16161.84;;;8.41;100.00
65157;BME280;52745;49.794;18.258;2023-02-18T13:41:46;-16162.81;;;8.44;100.00
65157;BME280;52745;49.794;18.258;2023-02-18T13:46:57;-16162.28;;;8.42;100.00
65157;BME280;52745;49.794;18.258;2023-02-18T13:49:36;-16161.31;;;8.39;100.00
65157;BME280;52745;49.794;18.258;2023-02-18T13:52:03;-16163.91;;;8.48;100.00
65157;BME280;52745;49.794;18.258;2023-02-18T13:54:37;-16165.00;;;8.53;100.00
65157;BME280;52745;49.794;18.258;2023-02-18T13:57:18;-16168.81;;;8.67;100.00
65157;BME280;52745;49.794;18.258;2023-02-18T13:59:49;-16171.28;;;8.76;100.00
65157;BME280;52745;49.794;18.258;2023-02-18T14:04:54;-16175.91;;;8.94;100.00
65157;BME280;52745;49.794;18.258;2023-02-18T14:07:24;-16177.56;;;9.00;100.00
65157;BME280;52745;49.794;18.258;2023-02-18T14:09:54;-16178.91;;;9.05;100.00
65157;BME280;52745;49.794;18.258;2023-02-18T14:12:37;-16179.06;;;9.05;100.00
65157;BME280;52745;49.794;18.258;2023-02-18T14:23:37;-16181.09;;;9.13;100.00
65157;BME280;52745;49.794;18.258;2023-02-18T14:29:07;-16180.28;;;9.10;100.00
65157;BME280;52745;49.794;18.258;2023-02-18T14:31:53;-16180.00;;;9.09;100.00
65157;BME280;52745;49.794;18.258;2023-02-18T14:46:04;-16186.16;;;9.32;100.00
65157;BME280;52745;49.794;18.258;2023-02-18T14:51:28;-16189.56;;;9.45;100.00
65157;BME280;52745;49.794;18.258;2023-02-18T14:54:04;-16189.28;;;9.44;100.00
65157;BME280;52745;49.794;18.258;2023-02-18T14:56:37;-16188.75;;;9.42;100.00
65157;BME280;52745;49.794;18.258;2023-02-18T14:59:05;-16189.56;;;9.45;100.00
65157;BME280;52745;49.794;18.258;2023-02-18T15:01:34;-16190.53;;;9.48;100.00
65157;BME280;52745;49.794;18.258;2023-02-18T15:04:03;-16190.53;;;9.48;100.00
65157;BME280;52745;49.794;18.258;2023-02-18T15:06:34;-16190.78;;;9.49;100.00
65157;BME280;52745;49.794;18.258;2023-02-18T15:09:21;-16192.00;;;9.54;100.00
65157;BME280;52745;49.794;18.258;2023-02-18T15:12:08;-16194.19;;;9.62;100.00
65157;BME280;52745;49.794;18.258;2023-02-18T15:14:38;-16194.75;;;9.64;100.00
65157;BME280;52745;49.794;18.258;2023-02-18T15:17:18;-16195.03;;;9.65;100.00
65157;BME280;52745;49.794;18.258;2023-02-18T15:19:51;-16196.09;;;9.69;100.00
65157;BME280;52745;49.794;18.258;2023-02-18T15:22:21;-16197.59;;;9.75;100.00
65157;BME280;52745;49.794;18.258;2023-02-18T15:24:54;-16198.28;;;9.78;100.00
65157;BME280;52745;49.794;18.258;2023-02-18T15:27:27;-16198.84;;;9.80;99.47
65157;BME280;52745;49.794;18.258;2023-02-18T15:32:31;-16201.56;;;9.90;98.36
65157;BME280;52745;49.794;18.258;2023-02-18T15:35:01;-16201.56;;;9.90;98.10